map of KUL home
KUL - Airport
Location
City:  Kuala Lumpur, Selangor, Malaysia
Near (Alt.):Sepang
Name:Kuala Lumpur International Airport
ICAO:WMKK
IATA:KUL

Details
Type:Airport (Aerodrome, Airfield)
Use:Public/Civil, International (customs port of entry)
Latitude:244'44"N (2.745578)
Longitude:10142'36"E (101.709917)
Datum:WGS 1984
Elevation:69 ft (21 m)
Variation:0.00W (WMM2015 magnetic declination)
0.01 annual change
Runways:2
Longest:13530 × 197 ft (4124 × 60 m), paved

Time
Time Zone:UTC+8
Local Time:

Weather
METAR:WMKK 290630Z VRB03KT 9999 FEW020 SCT140 BKN280 30/24 Q1009 NOSIG
TAF:WMKK 290500Z 2906/3012 19005KT 9999 FEW017CB SCT140 BKN270
TEMPO 2920/3000 3000 TSRA FEW015CB SCT018

Related Locations
Nearby:
Farthest:SEPC: 12449 mi / 20034 km
Patuca, S, EC

Find:

   beyond  
but within

Other Information
Maps:
NOTAMs:
Links:
Sources:

  
flag of Malaysia
flag of Selangor
flag of Kuala Lumpur
  

Sectional Chart

Flight Planning
at skyvector.com

Satellite Image

Google Maps Satellite view

 

Copyright © 2004-2017 Karl L. Swartz. All rights reserved.
The Great Circle Mapper name and logo are trademarks of the Great Circle Mapper.
All other trademarks mentioned herein belong to their respective owners.
Please see credits for attibutions and further copyright information.

  Follow gcmap on Facebook Follow gcmap on Twitter Follow gcmap on Google+ GCmap on LinkedIn

hCard Microformat

Geo Microformat